Time,TemperatureF,DewpointF,PressureIn,WindDirection,WindDirectionDegrees,WindSpeedMPH,WindSpeedGustMPH,Humidity,HourlyPrecipIn,Conditions,Clouds,dailyrainin,SolarRadiationWatts/m^2,SoftwareType,DateUTC
2013-08-16 00:01:00,59.0,57.0,-100.00,West,277,0.0,2.0,92,0.00,,,0.00,0.000000,,2013-08-16 04:01:00,
2013-08-16 00:43:00,59.0,57.0,-100.00,West,277,0.0,2.0,92,0.00,,,0.00,0.000000,,2013-08-16 04:43:00,
2013-08-16 00:54:00,59.0,57.0,-100.00,West,277,0.0,2.0,92,0.00,,,0.00,0.000000,,2013-08-16 04:54:00,
2013-08-16 01:22:00,59.0,57.0,-100.00,WNW,285,0.0,1.0,93,0.00,,,0.00,0.000000,,2013-08-16 05:22:00,
2013-08-16 01:32:00,59.0,57.0,-100.00,WNW,285,0.0,1.0,93,0.00,,,0.00,0.000000,,2013-08-16 05:32:00,
2013-08-16 01:44:00,59.0,57.0,-100.00,WNW,285,0.0,1.0,93,0.00,,,0.00,0.000000,,2013-08-16 05:44:00,
2013-08-16 02:01:00,58.0,57.0,-100.00,NW,326,0.0,1.0,95,0.00,,,0.00,0.000000,,2013-08-16 06:01:00,
2013-08-16 03:00:00,58.0,57.0,-100.00,NW,326,0.0,1.0,95,0.00,,,0.00,0.000000,,2013-08-16 07:00:00,
2013-08-16 03:01:00,58.0,57.0,-100.00,WNW,300,0.0,1.0,96,0.00,,,0.00,0.000000,,2013-08-16 07:01:00,
2013-08-16 03:42:00,58.0,57.0,-100.00,WNW,300,0.0,1.0,96,0.00,,,0.00,0.000000,,2013-08-16 07:42:00,
2013-08-16 03:52:00,58.0,57.0,-100.00,WNW,300,0.0,1.0,96,0.00,,,0.00,0.000000,,2013-08-16 07:52:00,
2013-08-16 04:01:00,59.0,58.0,-100.00,WNW,297,0.0,2.0,97,0.00,,,0.00,0.000000,,2013-08-16 08:01:00,
2013-08-16 04:42:00,59.0,58.0,-100.00,WNW,297,0.0,2.0,97,0.00,,,0.00,0.000000,,2013-08-16 08:42:00,
2013-08-16 04:52:00,59.0,58.0,-100.00,WNW,297,0.0,2.0,97,0.00,,,0.00,0.000000,,2013-08-16 08:52:00,
2013-08-16 05:01:00,59.0,58.0,-100.00,West,272,0.0,2.0,97,0.00,,,0.00,0.000000,,2013-08-16 09:01:00,
2013-08-16 05:42:00,59.0,58.0,-100.00,West,272,0.0,2.0,97,0.00,,,0.00,0.000000,,2013-08-16 09:42:00,
2013-08-16 05:53:00,59.0,58.0,-100.00,West,272,0.0,2.0,97,0.00,,,0.00,0.000000,,2013-08-16 09:53:00,
2013-08-16 06:01:00,59.0,58.0,-100.00,West,268,0.0,3.0,97,0.00,,,0.00,0.000000,,2013-08-16 10:01:00,
2013-08-16 06:42:00,59.0,58.0,-100.00,West,268,0.0,3.0,97,0.00,,,0.00,0.000000,,2013-08-16 10:42:00,
2013-08-16 06:53:00,59.0,58.0,-100.00,West,268,0.0,3.0,97,0.00,,,0.00,0.000000,,2013-08-16 10:53:00,
2013-08-16 07:01:00,59.0,57.0,-100.00,NW,317,0.0,3.0,94,0.00,,,0.00,15.000000,,2013-08-16 11:01:00,
2013-08-16 07:22:00,59.0,57.0,-100.00,NW,317,0.0,3.0,94,0.00,,,0.00,15.000000,,2013-08-16 11:22:00,
2013-08-16 07:32:00,59.0,57.0,-100.00,NW,317,0.0,3.0,94,0.00,,,0.00,15.000000,,2013-08-16 11:32:00,
2013-08-16 07:42:00,59.0,57.0,-100.00,NW,317,0.0,3.0,94,0.00,,,0.00,15.000000,,2013-08-16 11:42:00,
2013-08-16 07:52:00,59.0,57.0,-100.00,NW,317,0.0,3.0,94,0.00,,,0.00,15.000000,,2013-08-16 11:52:00,
2013-08-16 08:01:00,70.0,64.0,-100.00,North,7,0.0,3.0,80,0.00,,,0.00,129.000000,,2013-08-16 12:01:00,
2013-08-16 08:52:00,70.0,64.0,-100.00,North,7,0.0,3.0,80,0.00,,,0.00,129.000000,,2013-08-16 12:52:00,
2013-08-16 09:01:00,74.0,61.0,-100.00,NNE,19,0.0,4.0,65,0.00,,,0.00,194.000000,,2013-08-16 13:01:00,
2013-08-16 09:42:00,74.0,61.0,-100.00,NNE,19,0.0,4.0,65,0.00,,,0.00,194.000000,,2013-08-16 13:42:00,
2013-08-16 09:53:00,74.0,61.0,-100.00,NNE,19,0.0,4.0,65,0.00,,,0.00,194.000000,,2013-08-16 13:53:00,
2013-08-16 10:01:00,79.0,57.0,-100.00,NNW,327,1.0,3.0,47,0.00,,,0.00,271.000000,,2013-08-16 14:01:00,
2013-08-16 10:42:00,79.0,57.0,-100.00,NNW,327,1.0,3.0,47,0.00,,,0.00,271.000000,,2013-08-16 14:42:00,
2013-08-16 10:52:00,79.0,57.0,-100.00,NNW,327,1.0,3.0,47,0.00,,,0.00,271.000000,,2013-08-16 14:52:00,
2013-08-16 11:01:00,79.0,50.0,-100.00,SW,229,2.0,5.0,37,0.00,,,0.00,336.000000,,2013-08-16 15:01:00,
2013-08-16 11:43:00,79.0,50.0,-100.00,SW,229,2.0,5.0,37,0.00,,,0.00,336.000000,,2013-08-16 15:43:00,
2013-08-16 11:56:00,79.0,50.0,-100.00,SW,229,2.0,5.0,37,0.00,,,0.00,336.000000,,2013-08-16 15:56:00,
2013-08-16 12:01:00,81.0,55.0,-100.00,SSE,165,1.0,5.0,41,0.00,,,0.00,234.000000,,2013-08-16 16:01:00,
2013-08-16 12:44:00,81.0,55.0,-100.00,SSE,165,1.0,5.0,41,0.00,,,0.00,234.000000,,2013-08-16 16:44:00,
2013-08-16 12:57:00,81.0,55.0,-100.00,SSE,165,1.0,5.0,41,0.00,,,0.00,234.000000,,2013-08-16 16:57:00,
2013-08-16 13:01:00,77.0,54.0,-100.00,SSW,192,2.0,6.0,45,0.00,,,0.00,173.000000,,2013-08-16 17:01:00,
2013-08-16 13:28:00,77.0,54.0,-100.00,SSW,192,2.0,6.0,45,0.00,,,0.00,173.000000,,2013-08-16 17:28:00,
2013-08-16 13:34:00,77.0,54.0,-100.00,SSW,192,2.0,6.0,45,0.00,,,0.00,173.000000,,2013-08-16 17:34:00,
2013-08-16 13:47:00,77.0,54.0,-100.00,SSW,192,2.0,6.0,45,0.00,,,0.00,173.000000,,2013-08-16 17:47:00,
2013-08-16 14:00:00,77.0,54.0,-100.00,SSW,192,2.0,6.0,45,0.00,,,0.00,173.000000,,2013-08-16 18:00:00,
2013-08-16 14:01:00,79.0,53.0,-100.00,SW,232,3.0,9.0,40,0.00,,,0.00,290.000000,,2013-08-16 18:01:00,
2013-08-16 14:50:00,-999.0,-99.9,-100.00,SW,232,3.0,9.0,40,0.00,,,0.00,290.000000,,2013-08-16 18:50:00,
2013-08-16 15:01:00,79.0,50.0,-100.00,SW,225,2.0,8.0,37,0.00,,,0.00,340.000000,,2013-08-16 19:01:00,
2013-08-16 15:25:00,79.0,50.0,-100.00,SW,225,2.0,8.0,37,0.00,,,0.00,340.000000,,2013-08-16 19:25:00,
2013-08-16 15:36:00,79.0,50.0,-100.00,SW,225,2.0,8.0,37,0.00,,,0.00,340.000000,,2013-08-16 19:36:00,
2013-08-16 15:46:00,79.0,50.0,-100.00,SW,225,2.0,8.0,37,0.00,,,0.00,340.000000,,2013-08-16 19:46:00,
2013-08-16 15:55:00,79.0,50.0,-100.00,SW,225,2.0,8.0,37,0.00,,,0.00,340.000000,,2013-08-16 19:55:00,
2013-08-16 16:01:00,77.0,52.0,-100.00,SW,216,3.0,9.0,42,0.00,,,0.00,287.000000,,2013-08-16 20:01:00,
2013-08-16 16:23:00,77.0,52.0,-100.00,SW,216,3.0,9.0,42,0.00,,,0.00,287.000000,,2013-08-16 20:23:00,
2013-08-16 16:38:00,77.0,52.0,-100.00,SW,216,3.0,9.0,42,0.00,,,0.00,287.000000,,2013-08-16 20:38:00,
2013-08-16 16:44:00,77.0,52.0,-100.00,SW,216,3.0,9.0,42,0.00,,,0.00,287.000000,,2013-08-16 20:44:00,
2013-08-16 16:52:00,77.0,52.0,-100.00,SW,216,3.0,9.0,42,0.00,,,0.00,287.000000,,2013-08-16 20:52:00,
2013-08-16 17:01:00,76.0,55.0,-100.00,SW,215,2.0,9.0,49,0.00,,,0.00,237.000000,,2013-08-16 21:01:00,
2013-08-16 17:40:00,-999.0,-99.9,-100.00,SW,215,2.0,9.0,-999,0.00,,,0.00,237.000000,,2013-08-16 21:40:00,
2013-08-16 17:54:00,76.0,55.0,-100.00,SW,215,2.0,9.0,49,0.00,,,0.00,237.000000,,2013-08-16 21:54:00,
2013-08-16 18:01:00,72.0,57.0,-100.00,SW,229,1.0,7.0,59,0.00,,,0.00,123.000000,,2013-08-16 22:01:00,
2013-08-16 18:43:00,72.0,57.0,-100.00,SW,229,1.0,7.0,59,0.00,,,0.00,123.000000,,2013-08-16 22:43:00,
2013-08-16 18:52:00,72.0,57.0,-100.00,SW,229,1.0,7.0,59,0.00,,,0.00,123.000000,,2013-08-16 22:52:00,
2013-08-16 19:01:00,70.0,57.0,-100.00,SW,227,1.0,6.0,64,0.00,,,0.00,32.000000,,2013-08-16 23:01:00,
2013-08-16 19:23:00,70.0,57.0,-100.00,SW,227,1.0,6.0,64,0.00,,,0.00,32.000000,,2013-08-16 23:23:00,
2013-08-16 19:32:00,70.0,57.0,-100.00,SW,227,1.0,6.0,64,0.00,,,0.00,32.000000,,2013-08-16 23:32:00,
2013-08-16 19:42:00,70.0,57.0,-100.00,SW,227,1.0,6.0,64,0.00,,,0.00,32.000000,,2013-08-16 23:42:00,
2013-08-16 19:52:00,70.0,57.0,-100.00,SW,227,1.0,6.0,64,0.00,,,0.00,32.000000,,2013-08-16 23:52:00,
2013-08-16 20:01:00,65.0,58.0,-100.00,SW,220,0.0,4.0,79,0.00,,,0.00,9.000000,,2013-08-17 00:01:00,
2013-08-16 20:22:00,65.0,58.0,-100.00,SW,220,0.0,4.0,79,0.00,,,0.00,9.000000,,2013-08-17 00:22:00,
2013-08-16 20:33:00,65.0,58.0,-100.00,SW,220,0.0,4.0,79,0.00,,,0.00,9.000000,,2013-08-17 00:33:00,
2013-08-16 20:42:00,65.0,58.0,-100.00,SW,220,0.0,4.0,79,0.00,,,0.00,9.000000,,2013-08-17 00:42:00,
2013-08-16 20:52:00,65.0,58.0,-100.00,SW,220,0.0,4.0,79,0.00,,,0.00,9.000000,,2013-08-17 00:52:00,
2013-08-16 21:01:00,62.0,58.0,-100.00,WNW,297,0.0,0.0,88,0.00,,,0.00,0.000000,,2013-08-17 01:01:00,
2013-08-16 21:42:00,62.0,58.0,-100.00,WNW,297,0.0,0.0,88,0.00,,,0.00,0.000000,,2013-08-17 01:42:00,
2013-08-16 21:52:00,62.0,58.0,-100.00,WNW,297,0.0,0.0,88,0.00,,,0.00,0.000000,,2013-08-17 01:52:00,
2013-08-16 22:01:00,60.0,57.0,-100.00,WNW,297,0.0,0.0,91,0.00,,,0.00,0.000000,,2013-08-17 02:01:00,
2013-08-16 22:21:00,60.0,57.0,-100.00,WNW,297,0.0,0.0,91,0.00,,,0.00,0.000000,,2013-08-17 02:21:00,
2013-08-16 22:32:00,60.0,57.0,-100.00,WNW,297,0.0,0.0,91,0.00,,,0.00,0.000000,,2013-08-17 02:32:00,
2013-08-16 22:42:00,60.0,57.0,-100.00,WNW,297,0.0,0.0,91,0.00,,,0.00,0.000000,,2013-08-17 02:42:00,
2013-08-16 22:52:00,60.0,57.0,-100.00,WNW,297,0.0,0.0,91,0.00,,,0.00,0.000000,,2013-08-17 02:52:00,
2013-08-16 23:01:00,60.0,58.0,-100.00,WSW,258,0.0,0.0,92,0.00,,,0.00,0.000000,,2013-08-17 03:01:00,
2013-08-16 23:43:00,60.0,58.0,-100.00,WSW,258,0.0,0.0,92,0.00,,,0.00,0.000000,,2013-08-17 03:43:00,
2013-08-16 23:53:00,60.0,58.0,-100.00,WSW,258,0.0,0.0,92,0.00,,,0.00,0.000000,,2013-08-17 03:53:00,